Time;durP1;ratioP1;P1;durP2;ratioP2;P2;SDS_P1;SDS_P2;PMS_P1;PMS_P2;Temp;Humidity;BMP_temperature;BMP_pressure;BME280_temperature;BME280_humidity;BME280_pressure;Samples;Min_cycle;Max_cycle;Signal;HPM_P1;HPM_P2
2022/05/28 00:01:26;;;;;;;9.45;7.22;;;;;;;;;;5090775;28;20200;-68
2022/05/28 00:03:53;;;;;;;11.25;8.20;;;;;;;;;;5091021;28;20077;-69
2022/05/28 00:06:20;;;;;;;8.27;7.22;;;;;;;;;;5090071;28;20109;-67
2022/05/28 00:08:46;;;;;;;7.95;7.10;;;;;;;;;;5091100;28;20085;-69
2022/05/28 00:11:13;;;;;;;7.00;6.40;;;;;;;;;;5071670;28;20457;-68
2022/05/28 00:13:39;;;;;;;10.18;6.47;;;;;;;;;;5090675;28;20050;-68
2022/05/28 00:16:05;;;;;;;9.90;7.72;;;;;;;;;;5071649;28;20038;-68
2022/05/28 00:18:31;;;;;;;8.27;6.82;;;;;;;;;;5088066;28;20032;-68
2022/05/28 00:20:57;;;;;;;10.82;6.38;;;;;;;;;;5089986;28;20097;-69
2022/05/28 00:23:23;;;;;;;12.13;7.00;;;;;;;;;;5091296;28;20051;-68
2022/05/28 00:25:49;;;;;;;10.38;6.97;;;;;;;;;;5090910;28;20032;-68
2022/05/28 00:28:15;;;;;;;9.35;6.63;;;;;;;;;;5091225;28;20053;-67
2022/05/28 00:30:41;;;;;;;6.03;5.43;;;;;;;;;;5091089;28;20044;-70
2022/05/28 00:38:44;;;;;;;7.10;5.32;;;;;;;;;;5069865;23;20053;-68
2022/05/28 00:41:10;;;;;;;6.78;6.03;;;;;;;;;;5030847;28;20120;-67
2022/05/28 00:43:37;;;;;;;7.93;6.30;;;;;;;;;;5030727;28;20033;-68
2022/05/28 00:46:06;;;;;;;10.02;6.32;;;;;;;;;;5030461;28;20041;-68
2022/05/28 00:48:33;;;;;;;12.98;6.22;;;;;;;;;;5029607;28;20045;-68
2022/05/28 00:51:01;;;;;;;11.07;6.40;;;;;;;;;;5030477;28;20615;-68
2022/05/28 00:53:27;;;;;;;7.18;6.50;;;;;;;;;;5030766;28;20049;-70
2022/05/28 00:55:53;;;;;;;8.55;7.50;;;;;;;;;;5029077;28;20079;-70
2022/05/28 00:58:19;;;;;;;8.10;7.30;;;;;;;;;;5030578;28;20037;-68
2022/05/28 01:00:45;;;;;;;11.45;7.72;;;;;;;;;;5029983;28;20044;-67
2022/05/28 01:03:18;;;;;;;12.25;9.77;;;;;;;;;;5030542;28;20033;-67
2022/05/28 01:05:47;;;;;;;8.95;7.50;;;;;;;;;;5028720;28;20030;-70
2022/05/28 01:08:16;;;;;;;9.10;5.50;;;;;;;;;;5030433;28;20041;-68
2022/05/28 01:10:42;;;;;;;13.27;7.25;;;;;;;;;;5030025;28;20132;-68
2022/05/28 01:13:22;;;;;;;9.13;8.23;;;;;;;;;;5030044;28;20044;-69
2022/05/28 01:15:58;;;;;;;8.70;7.30;;;;;;;;;;5028654;28;20037;-66
2022/05/28 01:18:26;;;;;;;9.32;8.40;;;;;;;;;;5029090;28;20032;-68
2022/05/28 01:20:53;;;;;;;12.50;7.88;;;;;;;;;;5029792;28;20043;-68
2022/05/28 01:23:23;;;;;;;13.13;8.75;;;;;;;;;;5030166;28;20033;-69
2022/05/28 01:26:08;;;;;;;15.20;9.95;;;;;;;;;;5028354;28;20517;-69
2022/05/28 01:28:35;;;;;;;12.60;9.57;;;;;;;;;;5030156;28;20521;-67
2022/05/28 01:31:01;;;;;;;13.02;10.50;;;;;;;;;;5027477;28;20036;-69
2022/05/28 01:33:27;;;;;;;11.40;10.23;;;;;;;;;;5025251;28;20041;-69
2022/05/28 01:35:53;;;;;;;5.22;4.72;;;;;;;;;;5010017;28;20044;-68
2022/05/28 01:38:19;;;;;;;6.60;5.97;;;;;;;;;;5010139;28;20140;-69
2022/05/28 01:40:45;;;;;;;10.70;5.22;;;;;;;;;;5009767;28;20125;-68
2022/05/28 01:43:11;;;;;;;11.35;5.45;;;;;;;;;;5010211;28;20604;-69
2022/05/28 01:45:39;;;;;;;8.48;5.63;;;;;;;;;;5009992;28;20034;-69
2022/05/28 01:48:05;;;;;;;9.70;4.80;;;;;;;;;;4992455;28;20041;-68
2022/05/28 01:50:37;;;;;;;5.47;4.50;;;;;;;;;;4992320;28;20034;-68
2022/05/28 01:53:03;;;;;;;6.45;4.50;;;;;;;;;;4992485;28;20544;-70
2022/05/28 01:55:29;;;;;;;4.32;3.72;;;;;;;;;;5009768;28;20041;-69
2022/05/28 01:57:55;;;;;;;5.57;4.38;;;;;;;;;;4992388;28;20026;-70
2022/05/28 02:00:21;;;;;;;7.32;4.30;;;;;;;;;;5009893;28;20046;-69
2022/05/28 02:02:49;;;;;;;7.88;4.53;;;;;;;;;;5009548;28;20030;-69
2022/05/28 02:05:15;;;;;;;7.60;4.13;;;;;;;;;;5009543;28;20127;-69
2022/05/28 02:07:41;;;;;;;6.18;4.63;;;;;;;;;;5009646;28;20038;-68
2022/05/28 02:10:08;;;;;;;9.52;4.22;;;;;;;;;;5009608;28;20516;-68
2022/05/28 02:12:57;;;;;;;4.95;3.80;;;;;;;;;;4992417;28;20030;-68
2022/05/28 02:15:35;;;;;;;8.23;4.50;;;;;;;;;;4999303;28;20046;-69
2022/05/28 02:18:01;;;;;;;4.75;4.35;;;;;;;;;;5009559;28;20088;-68
2022/05/28 02:20:30;;;;;;;8.85;3.90;;;;;;;;;;5009672;28;20485;-67
2022/05/28 02:22:56;;;;;;;8.45;4.10;;;;;;;;;;5009587;28;20033;-69
2022/05/28 02:25:36;;;;;;;5.47;4.03;;;;;;;;;;4992039;28;20072;-69
2022/05/28 02:28:07;;;;;;;5.43;4.35;;;;;;;;;;5008856;28;20086;-69
2022/05/28 02:30:34;;;;;;;8.32;4.10;;;;;;;;;;4975921;28;20029;-69
2022/05/28 02:33:06;;;;;;;17.48;4.13;;;;;;;;;;5009264;28;20128;-72
2022/05/28 02:35:33;;;;;;;7.03;3.92;;;;;;;;;;4992095;28;20046;-68
2022/05/28 02:37:59;;;;;;;7.00;4.10;;;;;;;;;;5009160;28;20751;-69
2022/05/28 02:40:25;;;;;;;9.15;4.28;;;;;;;;;;4992044;28;20510;-69
2022/05/28 02:42:52;;;;;;;8.73;3.80;;;;;;;;;;5013014;28;20037;-68
2022/05/28 02:45:17;;;;;;;5.57;3.78;;;;;;;;;;5013275;28;20088;-66
2022/05/28 02:47:45;;;;;;;7.05;3.97;;;;;;;;;;5013157;28;20041;-67
2022/05/28 02:50:10;;;;;;;8.98;4.07;;;;;;;;;;4994963;28;20049;-68
2022/05/28 02:52:36;;;;;;;8.45;4.75;;;;;;;;;;5013264;28;20030;-68
2022/05/28 02:55:02;;;;;;;5.63;4.05;;;;;;;;;;5012767;28;20037;-68
2022/05/28 02:57:28;;;;;;;14.77;4.50;;;;;;;;;;5013356;28;20037;-67
2022/05/28 02:59:56;;;;;;;4.38;3.90;;;;;;;;;;5012874;28;20049;-69
2022/05/28 03:02:22;;;;;;;4.05;3.75;;;;;;;;;;5013023;28;20296;-68
2022/05/28 03:04:48;;;;;;;7.35;3.65;;;;;;;;;;5013042;28;20363;-68
2022/05/28 03:07:13;;;;;;;4.05;3.65;;;;;;;;;;5011939;28;20046;-69
2022/05/28 03:09:39;;;;;;;4.65;4.13;;;;;;;;;;5011474;28;20038;-67
2022/05/28 03:12:05;;;;;;;4.60;4.20;;;;;;;;;;5012075;28;20034;-69
2022/05/28 03:14:31;;;;;;;5.00;4.40;;;;;;;;;;5011156;28;20037;-68
2022/05/28 03:17:00;;;;;;;4.20;3.85;;;;;;;;;;4975647;28;20038;-68
2022/05/28 03:19:26;;;;;;;7.50;4.10;;;;;;;;;;5003897;28;20040;-68
2022/05/28 03:21:52;;;;;;;6.70;4.40;;;;;;;;;;5011991;28;20026;-68
2022/05/28 03:24:18;;;;;;;6.90;4.22;;;;;;;;;;5012254;28;20514;-68
2022/05/28 03:26:44;;;;;;;5.10;4.53;;;;;;;;;;5012101;28;20043;-68
2022/05/28 03:29:09;;;;;;;9.98;4.45;;;;;;;;;;5025435;28;20525;-68
2022/05/28 03:31:35;;;;;;;5.82;4.78;;;;;;;;;;5005538;28;20049;-69
2022/05/28 03:34:01;;;;;;;7.40;4.55;;;;;;;;;;5012155;28;20085;-69
2022/05/28 03:36:27;;;;;;;4.90;4.53;;;;;;;;;;5015060;28;20034;-69
2022/05/28 03:38:53;;;;;;;5.10;4.43;;;;;;;;;;5017974;28;20513;-69
2022/05/28 03:41:19;;;;;;;8.63;4.40;;;;;;;;;;5021917;28;20029;-66
2022/05/28 03:43:45;;;;;;;5.32;4.35;;;;;;;;;;5021225;28;20091;-69
2022/05/28 03:46:37;;;;;;;9.13;5.03;;;;;;;;;;5003148;28;20040;-68
2022/05/28 03:49:15;;;;;;;5.85;5.20;;;;;;;;;;5017175;28;20045;-69
2022/05/28 03:51:41;;;;;;;7.38;4.43;;;;;;;;;;5018613;28;20644;-68
2022/05/28 03:54:06;;;;;;;6.10;4.50;;;;;;;;;;5019115;28;20036;-68
2022/05/28 03:56:34;;;;;;;5.45;4.15;;;;;;;;;;5019298;28;20529;-69
2022/05/28 03:59:00;;;;;;;5.00;4.50;;;;;;;;;;5003027;28;20029;-69
2022/05/28 04:01:26;;;;;;;6.75;4.65;;;;;;;;;;5014035;28;20080;-68
2022/05/28 04:03:52;;;;;;;8.63;4.57;;;;;;;;;;4993986;28;20029;-69
2022/05/28 04:06:18;;;;;;;8.23;4.35;;;;;;;;;;5011146;28;20422;-67
2022/05/28 04:08:43;;;;;;;5.15;4.40;;;;;;;;;;5011281;28;20044;-68
2022/05/28 04:11:10;;;;;;;6.93;5.10;;;;;;;;;;5011019;28;20467;-69
2022/05/28 04:13:36;;;;;;;4.90;4.45;;;;;;;;;;5015662;28;20037;-68
2022/05/28 04:16:02;;;;;;;5.93;4.82;;;;;;;;;;5016538;28;20061;-69
2022/05/28 04:18:28;;;;;;;5.35;4.80;;;;;;;;;;5002480;28;20060;-68
2022/05/28 04:20:53;;;;;;;8.60;4.60;;;;;;;;;;5002479;28;20029;-68
2022/05/28 04:23:19;;;;;;;5.72;5.05;;;;;;;;;;5019802;28;20032;-68
2022/05/28 04:25:45;;;;;;;6.68;5.05;;;;;;;;;;5020527;28;20061;-68
2022/05/28 04:28:11;;;;;;;7.32;5.20;;;;;;;;;;5013302;28;20046;-67
2022/05/28 04:30:37;;;;;;;5.35;4.40;;;;;;;;;;4993393;28;20030;-69
2022/05/28 04:33:03;;;;;;;4.63;4.32;;;;;;;;;;5010888;28;20049;-68
2022/05/28 04:35:29;;;;;;;5.20;4.70;;;;;;;;;;5009641;28;20034;-68
2022/05/28 04:37:54;;;;;;;8.05;4.53;;;;;;;;;;5020647;28;20049;-67
2022/05/28 04:40:21;;;;;;;6.03;4.85;;;;;;;;;;5019608;28;20029;-68
2022/05/28 04:42:47;;;;;;;5.47;4.80;;;;;;;;;;5001474;28;20033;-67
2022/05/28 04:45:12;;;;;;;6.93;4.70;;;;;;;;;;5001926;28;20021;-69
2022/05/28 04:47:38;;;;;;;6.72;4.97;;;;;;;;;;5020629;28;20050;-67
2022/05/28 04:50:04;;;;;;;5.47;4.57;;;;;;;;;;5010455;28;20659;-72
2022/05/28 04:52:30;;;;;;;7.15;4.55;;;;;;;;;;5011049;28;20568;-70
2022/05/28 04:54:56;;;;;;;9.77;5.13;;;;;;;;;;4993452;28;20490;-71
2022/05/28 04:57:22;;;;;;;6.60;4.75;;;;;;;;;;5010786;28;20037;-73
2022/05/28 04:59:48;;;;;;;5.47;4.75;;;;;;;;;;5010986;28;20084;-73
2022/05/28 05:02:15;;;;;;;9.85;6.10;;;;;;;;;;5010697;28;20042;-72
2022/05/28 05:04:41;;;;;;;5.55;5.03;;;;;;;;;;5010237;28;20026;-73
2022/05/28 05:07:07;;;;;;;8.50;4.95;;;;;;;;;;5010274;28;20096;-73
2022/05/28 05:09:33;;;;;;;5.72;4.65;;;;;;;;;;5010853;28;20033;-73
2022/05/28 05:11:59;;;;;;;5.93;4.30;;;;;;;;;;4992710;28;20092;-74
2022/05/28 05:14:25;;;;;;;5.03;4.38;;;;;;;;;;5010685;28;20040;-72
2022/05/28 05:16:50;;;;;;;13.90;5.07;;;;;;;;;;5010451;28;20667;-73
2022/05/28 05:19:16;;;;;;;7.68;5.03;;;;;;;;;;4992894;28;20403;-72
2022/05/28 05:21:42;;;;;;;6.50;4.75;;;;;;;;;;5002574;28;20391;-71
2022/05/28 05:24:08;;;;;;;9.38;4.88;;;;;;;;;;5000418;28;20091;-71
2022/05/28 05:26:34;;;;;;;5.88;4.70;;;;;;;;;;5002712;28;20022;-72
2022/05/28 05:29:00;;;;;;;12.15;5.55;;;;;;;;;;5004877;28;20037;-73
2022/05/28 05:31:25;;;;;;;8.30;5.00;;;;;;;;;;5004414;28;20033;-72
2022/05/28 05:33:51;;;;;;;7.15;4.97;;;;;;;;;;5005059;28;20509;-72
2022/05/28 05:36:17;;;;;;;8.27;5.05;;;;;;;;;;5004498;28;20122;-72
2022/05/28 05:38:43;;;;;;;5.95;4.70;;;;;;;;;;5001958;28;20058;-72
2022/05/28 05:41:09;;;;;;;4.45;3.95;;;;;;;;;;4998474;28;20095;-71
2022/05/28 05:43:35;;;;;;;8.35;4.32;;;;;;;;;;4996127;28;20585;-71
2022/05/28 05:46:00;;;;;;;5.25;3.90;;;;;;;;;;4994904;28;20041;-71
2022/05/28 05:48:27;;;;;;;6.07;3.90;;;;;;;;;;5001473;28;20041;-71
2022/05/28 05:50:53;;;;;;;7.20;3.60;;;;;;;;;;5005439;28;20092;-71
2022/05/28 05:53:19;;;;;;;7.50;4.18;;;;;;;;;;5004121;28;20494;-72
2022/05/28 05:55:45;;;;;;;6.13;3.90;;;;;;;;;;4988523;28;20030;-71
2022/05/28 05:58:10;;;;;;;10.85;3.55;;;;;;;;;;4973806;28;20076;-72
2022/05/28 06:00:37;;;;;;;4.80;3.63;;;;;;;;;;5006569;28;20128;-72
2022/05/28 06:03:02;;;;;;;4.75;3.70;;;;;;;;;;5002275;28;20054;-73
2022/05/28 06:05:28;;;;;;;5.15;3.65;;;;;;;;;;5003459;28;20524;-72
2022/05/28 06:07:54;;;;;;;5.57;3.35;;;;;;;;;;5002448;28;20521;-72
2022/05/28 06:10:20;;;;;;;3.55;3.10;;;;;;;;;;5003924;28;20038;-73
2022/05/28 06:12:46;;;;;;;4.07;3.50;;;;;;;;;;5004088;28;20125;-71
2022/05/28 06:15:12;;;;;;;6.93;3.67;;;;;;;;;;5004508;28;20041;-71
2022/05/28 06:17:38;;;;;;;8.20;4.22;;;;;;;;;;5007045;28;20036;-71
2022/05/28 06:20:04;;;;;;;5.13;3.58;;;;;;;;;;5004995;28;20033;-72
2022/05/28 06:22:30;;;;;;;5.43;4.28;;;;;;;;;;4999807;28;20442;-72
2022/05/28 06:24:56;;;;;;;3.85;3.55;;;;;;;;;;5001837;28;20045;-71
2022/05/28 06:27:22;;;;;;;6.45;3.08;;;;;;;;;;4999819;28;20048;-72
2022/05/28 06:29:52;;;;;;;8.60;2.90;;;;;;;;;;4985527;28;20041;-73
2022/05/28 06:32:18;;;;;;;3.85;3.35;;;;;;;;;;4992925;28;20040;-73
2022/05/28 06:34:44;;;;;;;5.40;3.17;;;;;;;;;;4999043;28;20062;-72
2022/05/28 06:37:11;;;;;;;5.05;3.90;;;;;;;;;;5000262;28;20159;-72
2022/05/28 06:39:37;;;;;;;5.32;3.30;;;;;;;;;;5014631;28;20034;-70
2022/05/28 06:42:03;;;;;;;4.90;3.20;;;;;;;;;;5002121;28;20738;-70
2022/05/28 06:44:29;;;;;;;6.95;3.80;;;;;;;;;;5000440;28;20037;-69
2022/05/28 06:46:55;;;;;;;6.80;3.35;;;;;;;;;;4985707;28;20125;-70
2022/05/28 06:49:21;;;;;;;5.65;3.55;;;;;;;;;;5000611;28;20665;-71
2022/05/28 06:51:47;;;;;;;4.90;3.50;;;;;;;;;;4999918;28;20022;-71
2022/05/28 06:54:13;;;;;;;4.80;3.08;;;;;;;;;;4999163;28;21588;-71
2022/05/28 06:56:39;;;;;;;4.10;2.90;;;;;;;;;;5003090;28;20124;-71
2022/05/28 06:59:05;;;;;;;5.28;3.22;;;;;;;;;;4999220;28;20118;-71
2022/05/28 07:01:31;;;;;;;4.13;2.92;;;;;;;;;;4985336;28;20034;-71
2022/05/28 07:03:57;;;;;;;3.20;2.95;;;;;;;;;;4976633;28;20081;-71
2022/05/28 07:06:23;;;;;;;5.22;2.88;;;;;;;;;;4972560;28;20059;-70
2022/05/28 07:08:49;;;;;;;6.00;3.10;;;;;;;;;;5007034;28;20040;-70
2022/05/28 07:11:15;;;;;;;3.58;3.35;;;;;;;;;;4989304;28;20029;-70
2022/05/28 07:13:41;;;;;;;6.85;3.35;;;;;;;;;;5006127;28;20065;-71
2022/05/28 07:16:07;;;;;;;3.60;3.30;;;;;;;;;;4990223;28;20036;-71
2022/05/28 07:18:36;;;;;;;4.88;3.70;;;;;;;;;;4992077;28;20040;-70
2022/05/28 07:21:03;;;;;;;3.70;2.80;;;;;;;;;;4990019;28;20040;-71
2022/05/28 07:23:29;;;;;;;4.28;3.50;;;;;;;;;;5006515;28;20042;-70
2022/05/28 07:25:59;;;;;;;3.85;3.20;;;;;;;;;;5006166;28;20038;-69
2022/05/28 07:28:25;;;;;;;6.20;3.38;;;;;;;;;;5003448;28;20128;-69
2022/05/28 07:30:51;;;;;;;7.22;3.47;;;;;;;;;;5005484;28;20120;-70
2022/05/28 07:33:17;;;;;;;3.60;3.28;;;;;;;;;;5006561;28;20037;-70
2022/05/28 07:35:43;;;;;;;3.17;2.97;;;;;;;;;;5003802;28;20076;-69
2022/05/28 07:38:09;;;;;;;4.85;3.72;;;;;;;;;;5005566;28;20054;-69
2022/05/28 07:40:35;;;;;;;4.13;3.72;;;;;;;;;;4973476;28;20093;-69
2022/05/28 07:43:01;;;;;;;4.55;3.60;;;;;;;;;;5007023;28;20026;-69
2022/05/28 07:45:27;;;;;;;4.00;3.60;;;;;;;;;;5005496;28;20034;-68
2022/05/28 07:47:53;;;;;;;8.63;4.32;;;;;;;;;;5007823;28;20430;-68
2022/05/28 07:50:20;;;;;;;7.88;5.18;;;;;;;;;;4998488;28;20120;-69
2022/05/28 07:52:50;;;;;;;5.45;4.90;;;;;;;;;;5002271;28;20038;-69
2022/05/28 07:55:16;;;;;;;6.25;5.55;;;;;;;;;;4991800;28;20069;-69
2022/05/28 07:57:42;;;;;;;10.68;9.68;;;;;;;;;;4997144;28;20538;-69
2022/05/28 08:00:08;;;;;;;6.15;5.50;;;;;;;;;;5001296;28;20038;-71
2022/05/28 08:02:37;;;;;;;5.55;5.05;;;;;;;;;;4996649;28;20031;-70
2022/05/28 08:05:03;;;;;;;6.78;5.03;;;;;;;;;;4999176;28;20049;-70
2022/05/28 08:07:29;;;;;;;8.10;5.45;;;;;;;;;;5005510;28;20050;-69
2022/05/28 08:09:55;;;;;;;7.88;4.80;;;;;;;;;;4998898;28;20048;-70
2022/05/28 08:12:22;;;;;;;7.45;5.70;;;;;;;;;;4991433;28;20034;-70
2022/05/28 08:14:47;;;;;;;8.82;6.03;;;;;;;;;;4991803;28;20134;-70
2022/05/28 08:17:15;;;;;;;6.38;5.78;;;;;;;;;;5004129;28;20495;-70
2022/05/28 08:19:41;;;;;;;5.70;5.05;;;;;;;;;;5009533;28;20120;-70
2022/05/28 08:25:12;;;;;;;5.63;5.03;;;;;;;;;;4971334;28;20038;-70
2022/05/28 08:27:38;;;;;;;8.38;5.57;;;;;;;;;;4989080;28;20046;-70
2022/05/28 08:30:04;;;;;;;5.63;4.55;;;;;;;;;;4989603;28;20046;-70
2022/05/28 08:32:30;;;;;;;4.70;4.10;;;;;;;;;;5009903;28;20112;-70
2022/05/28 08:34:56;;;;;;;5.13;4.60;;;;;;;;;;5009900;28;20121;-70
2022/05/28 08:37:22;;;;;;;7.22;5.00;;;;;;;;;;4975512;28;20588;-70
2022/05/28 08:39:48;;;;;;;6.05;5.28;;;;;;;;;;5010879;28;20030;-70
2022/05/28 08:42:14;;;;;;;5.68;5.07;;;;;;;;;;5011042;28;20052;-70
2022/05/28 08:44:40;;;;;;;3.50;3.20;;;;;;;;;;5014656;28;20057;-69
2022/05/28 08:47:16;;;;;;;6.55;4.18;;;;;;;;;;5003570;28;20041;-69
2022/05/28 08:49:43;;;;;;;5.60;3.92;;;;;;;;;;4968063;28;20030;-70
2022/05/28 08:52:09;;;;;;;5.45;4.95;;;;;;;;;;5019720;28;20041;-69
2022/05/28 08:54:38;;;;;;;1.73;1.60;;;;;;;;;;5015270;28;20062;-72
2022/05/28 08:57:07;;;;;;;2.08;1.80;;;;;;;;;;5002732;28;20132;-70
2022/05/28 08:59:34;;;;;;;2.55;2.35;;;;;;;;;;5009827;28;20033;-71
2022/05/28 09:02:00;;;;;;;5.10;4.10;;;;;;;;;;5009617;28;20034;-70
2022/05/28 09:04:35;;;;;;;3.80;2.38;;;;;;;;;;5010826;28;20029;-71
2022/05/28 09:07:03;;;;;;;2.90;2.28;;;;;;;;;;4977112;28;20044;-71
2022/05/28 09:09:33;;;;;;;5.50;2.83;;;;;;;;;;5009427;28;20038;-71
2022/05/28 09:11:59;;;;;;;3.80;3.47;;;;;;;;;;5010703;28;20065;-70
2022/05/28 09:14:27;;;;;;;4.28;3.88;;;;;;;;;;5008993;28;20046;-70
2022/05/28 09:16:54;;;;;;;5.93;3.85;;;;;;;;;;5010533;28;20038;-68
2022/05/28 09:19:21;;;;;;;6.43;4.15;;;;;;;;;;5010509;28;20058;-68
2022/05/28 09:21:47;;;;;;;6.05;4.50;;;;;;;;;;5010600;28;20498;-68
2022/05/28 09:24:17;;;;;;;4.38;3.42;;;;;;;;;;5010212;28;20029;-69
2022/05/28 09:26:51;;;;;;;4.07;2.60;;;;;;;;;;5010093;28;20041;-69
2022/05/28 09:29:32;;;;;;;4.28;3.88;;;;;;;;;;4992496;28;20129;-69
2022/05/28 09:32:04;;;;;;;5.68;5.13;;;;;;;;;;4992739;28;20033;-69
2022/05/28 09:34:48;;;;;;;6.95;6.30;;;;;;;;;;5010141;28;20460;-70
2022/05/28 09:37:23;;;;;;;6.80;4.60;;;;;;;;;;5009919;28;20057;-70
2022/05/28 09:39:54;;;;;;;10.43;5.07;;;;;;;;;;5010345;28;20117;-69
2022/05/28 09:42:23;;;;;;;9.15;4.65;;;;;;;;;;5010047;28;20049;-69
2022/05/28 09:44:52;;;;;;;8.80;4.30;;;;;;;;;;5010073;28;20461;-70
2022/05/28 09:47:18;;;;;;;4.45;3.45;;;;;;;;;;5007470;28;20042;-69
2022/05/28 09:49:48;;;;;;;5.18;3.70;;;;;;;;;;4991560;28;20041;-69
2022/05/28 09:52:19;;;;;;;7.25;3.83;;;;;;;;;;4990901;28;20556;-69
2022/05/28 09:54:45;;;;;;;3.35;3.05;;;;;;;;;;4973801;28;20034;-69
2022/05/28 09:57:12;;;;;;;4.05;3.65;;;;;;;;;;5009101;28;20028;-70
2022/05/28 09:59:44;;;;;;;6.57;3.80;;;;;;;;;;4992068;28;20034;-69
2022/05/28 10:02:09;;;;;;;7.15;4.10;;;;;;;;;;5009341;28;20034;-69
2022/05/28 10:04:45;;;;;;;5.82;4.22;;;;;;;;;;5008983;28;20034;-69
2022/05/28 10:07:11;;;;;;;3.45;3.15;;;;;;;;;;4990338;28;20085;-70
2022/05/28 10:09:46;;;;;;;3.70;3.40;;;;;;;;;;5009402;28;20053;-69
2022/05/28 10:12:13;;;;;;;3.78;2.88;;;;;;;;;;5009104;28;20435;-70
2022/05/28 10:14:39;;;;;;;3.67;2.75;;;;;;;;;;4991063;28;20026;-69
2022/05/28 10:17:05;;;;;;;6.57;3.58;;;;;;;;;;5008591;28;20049;-69
2022/05/28 10:19:33;;;;;;;5.68;3.80;;;;;;;;;;5009469;28;20033;-70
2022/05/28 10:22:00;;;;;;;4.50;3.60;;;;;;;;;;4991582;28;20029;-69
2022/05/28 10:24:29;;;;;;;3.15;2.95;;;;;;;;;;5009121;28;20069;-69
2022/05/28 10:26:56;;;;;;;5.55;4.10;;;;;;;;;;5009090;28;20168;-69
2022/05/28 10:29:24;;;;;;;5.82;3.88;;;;;;;;;;5006190;28;20034;-69
2022/05/28 10:31:50;;;;;;;3.42;3.20;;;;;;;;;;5009114;28;20050;-69
2022/05/28 10:34:22;;;;;;;2.30;2.13;;;;;;;;;;4991220;28;20046;-69
2022/05/28 10:36:48;;;;;;;3.72;3.47;;;;;;;;;;4990859;28;20128;-69
2022/05/28 10:39:16;;;;;;;4.38;3.25;;;;;;;;;;5009089;28;20065;-69
2022/05/28 10:41:42;;;;;;;8.13;3.60;;;;;;;;;;5006418;28;20033;-69
2022/05/28 10:44:08;;;;;;;3.80;3.50;;;;;;;;;;5007974;28;20113;-69
2022/05/28 10:46:34;;;;;;;3.40;3.10;;;;;;;;;;5008783;28;20406;-67
2022/05/28 10:49:18;;;;;;;3.65;3.15;;;;;;;;;;5009132;28;20137;-69
2022/05/28 10:52:03;;;;;;;2.83;2.65;;;;;;;;;;5004782;28;20034;-69
2022/05/28 10:54:40;;;;;;;4.25;3.85;;;;;;;;;;4989504;28;20120;-70
2022/05/28 10:57:25;;;;;;;4.15;3.47;;;;;;;;;;4994911;28;20038;-73
2022/05/28 10:59:57;;;;;;;4.28;3.88;;;;;;;;;;4986923;28;20046;-72
2022/05/28 11:02:38;;;;;;;6.18;3.75;;;;;;;;;;5000383;28;20026;-72
2022/05/28 11:05:10;;;;;;;3.80;3.42;;;;;;;;;;5002621;28;20104;-72
2022/05/28 11:07:48;;;;;;;4.47;3.67;;;;;;;;;;5077012;23;20484;-73
2022/05/28 11:10:14;;;;;;;4.57;3.38;;;;;;;;;;4988850;28;20084;-71
2022/05/28 11:12:48;;;;;;;4.68;2.58;;;;;;;;;;5035809;28;20030;-72
2022/05/28 11:15:22;;;;;;;3.53;3.28;;;;;;;;;;5017357;28;20079;-72
2022/05/28 11:17:54;;;;;;;3.42;3.10;;;;;;;;;;5039564;28;20029;-72
2022/05/28 11:20:23;;;;;;;2.88;2.47;;;;;;;;;;5007365;28;20119;-72
2022/05/28 11:23:01;;;;;;;3.00;2.58;;;;;;;;;;5036559;28;20121;-72
2022/05/28 11:25:46;;;;;;;2.97;2.70;;;;;;;;;;5011975;28;20039;-72
2022/05/28 11:28:20;;;;;;;3.00;2.67;;;;;;;;;;5041566;28;20539;-72
2022/05/28 11:30:47;;;;;;;2.05;1.90;;;;;;;;;;5035533;28;20028;-72
2022/05/28 11:33:13;;;;;;;2.38;2.17;;;;;;;;;;5010948;28;20025;-73
2022/05/28 11:35:39;;;;;;;1.90;1.80;;;;;;;;;;5039243;28;20055;-72
2022/05/28 11:38:40;;;;;;;2.38;2.17;;;;;;;;;;5043344;28;20182;-72
2022/05/28 11:41:15;;;;;;;2.47;2.00;;;;;;;;;;4948376;28;20038;-72
2022/05/28 11:43:44;;;;;;;1.85;1.83;;;;;;;;;;5021884;28;20060;-72
2022/05/28 11:46:28;;;;;;;2.13;2.03;;;;;;;;;;5043211;28;20051;-72
2022/05/28 11:51:49;;;;;;;2.00;1.90;;;;;;;;;;5039800;28;20641;-72
2022/05/28 11:54:33;;;;;;;2.03;1.90;;;;;;;;;;5025503;28;20127;-73
2022/05/28 11:57:01;;;;;;;2.72;1.88;;;;;;;;;;5022789;28;20068;-72
2022/05/28 11:59:27;;;;;;;2.20;1.73;;;;;;;;;;5041673;28;20125;-72
2022/05/28 12:02:10;;;;;;;1.52;1.52;;;;;;;;;;5042684;28;20064;-73
2022/05/28 12:04:38;;;;;;;2.75;1.80;;;;;;;;;;5042209;28;20048;-74
2022/05/28 12:07:10;;;;;;;3.58;1.90;;;;;;;;;;4997174;28;20036;-73
2022/05/28 12:09:40;;;;;;;2.05;1.67;;;;;;;;;;5018016;28;20424;-74
2022/05/28 12:12:44;;;;;;;3.10;1.83;;;;;;;;;;5001805;28;20030;-73
2022/05/28 12:15:16;;;;;;;1.70;1.60;;;;;;;;;;4987910;28;20041;-71
2022/05/28 12:17:42;;;;;;;1.45;1.35;;;;;;;;;;4987985;28;20030;-73
2022/05/28 12:20:10;;;;;;;3.00;1.65;;;;;;;;;;4986661;28;20044;-72
2022/05/28 12:22:37;;;;;;;3.63;1.92;;;;;;;;;;4987785;28;20037;-73
2022/05/28 12:25:26;;;;;;;1.90;1.80;;;;;;;;;;4958467;28;20030;-74
2022/05/28 12:27:56;;;;;;;2.92;2.00;;;;;;;;;;5004152;28;20056;-73
2022/05/28 12:30:25;;;;;;;1.92;1.48;;;;;;;;;;5004367;28;20052;-74
2022/05/28 12:32:51;;;;;;;1.80;1.67;;;;;;;;;;5010919;28;20049;-74
2022/05/28 12:35:20;;;;;;;2.30;1.75;;;;;;;;;;4993460;28;20049;-73
2022/05/28 12:37:52;;;;;;;1.67;1.58;;;;;;;;;;5016314;28;20030;-73
2022/05/28 12:40:17;;;;;;;1.70;1.60;;;;;;;;;;5019428;28;20091;-75
2022/05/28 12:42:45;;;;;;;4.28;1.80;;;;;;;;;;5016693;28;20057;-72
2022/05/28 12:45:14;;;;;;;1.73;1.33;;;;;;;;;;5019001;28;20061;-73
2022/05/28 12:47:40;;;;;;;1.90;1.60;;;;;;;;;;5017683;28;20041;-75
2022/05/28 12:50:06;;;;;;;1.52;1.42;;;;;;;;;;5019642;28;20480;-74
2022/05/28 12:52:43;;;;;;;2.55;1.85;;;;;;;;;;5011265;28;20033;-72
2022/05/28 12:55:28;;;;;;;1.50;1.40;;;;;;;;;;5019037;28;20042;-73
2022/05/28 12:58:17;;;;;;;2.08;1.80;;;;;;;;;;5024983;28;20037;-76
2022/05/28 13:00:54;;;;;;;2.28;1.75;;;;;;;;;;5003527;28;20467;-73
2022/05/28 13:03:22;;;;;;;1.80;1.70;;;;;;;;;;5023114;28;20063;-73
2022/05/28 13:05:52;;;;;;;1.80;1.70;;;;;;;;;;5018216;28;20507;-74
2022/05/28 13:08:25;;;;;;;2.65;1.50;;;;;;;;;;5020715;28;20103;-74
2022/05/28 13:10:54;;;;;;;1.10;1.10;;;;;;;;;;5009565;28;20034;-73
2022/05/28 13:13:20;;;;;;;3.60;1.30;;;;;;;;;;4993373;28;20033;-73
2022/05/28 13:16:04;;;;;;;1.40;1.40;;;;;;;;;;5005099;28;20087;-74
2022/05/28 13:18:48;;;;;;;1.60;1.50;;;;;;;;;;5016302;28;20048;-73
2022/05/28 13:21:13;;;;;;;1.48;1.38;;;;;;;;;;5015876;28;20103;-73
2022/05/28 13:23:44;;;;;;;1.70;1.60;;;;;;;;;;5017112;28;20029;-73
2022/05/28 13:26:10;;;;;;;;;;;;;;;;;;5024427;28;20030;-74
2022/05/28 13:28:36;;;;;;;1.77;1.50;;;;;;;;;;5024491;28;19943;-73
2022/05/28 13:31:03;;;;;;;1.77;1.67;;;;;;;;;;5020522;28;20045;-77
2022/05/28 13:33:33;;;;;;;1.95;1.33;;;;;;;;;;5009014;28;20513;-72
2022/05/28 13:35:59;;;;;;;3.03;1.40;;;;;;;;;;5008748;28;20034;-72
2022/05/28 13:38:37;;;;;;;2.42;1.58;;;;;;;;;;5018405;28;20037;-72
2022/05/28 13:41:13;;;;;;;1.20;1.20;;;;;;;;;;4998487;28;20034;-73
2022/05/28 13:43:43;;;;;;;1.17;1.17;;;;;;;;;;5022553;28;20033;-74
2022/05/28 13:46:12;;;;;;;1.97;1.20;;;;;;;;;;5011939;28;20045;-72
2022/05/28 13:48:38;;;;;;;5.35;1.90;;;;;;;;;;5023530;28;20148;-76
2022/05/28 13:51:07;;;;;;;1.77;1.45;;;;;;;;;;4996075;28;20037;-74
2022/05/28 13:53:36;;;;;;;1.02;1.02;;;;;;;;;;5018065;28;20452;-73
2022/05/28 13:56:03;;;;;;;1.23;1.20;;;;;;;;;;5000026;28;20460;-73
2022/05/28 13:58:30;;;;;;;2.55;1.27;;;;;;;;;;5016752;28;20564;-72
2022/05/28 14:00:59;;;;;;;1.60;1.50;;;;;;;;;;4997370;28;20547;-72
2022/05/28 14:03:26;;;;;;;1.42;1.33;;;;;;;;;;5017831;28;20029;-72
2022/05/28 14:05:52;;;;;;;2.65;1.25;;;;;;;;;;5015399;28;20050;-73
2022/05/28 14:08:41;;;;;;;4.55;1.73;;;;;;;;;;5015420;28;20103;-72
2022/05/28 14:11:25;;;;;;;1.20;1.10;;;;;;;;;;5016557;28;20045;-72
2022/05/28 14:13:52;;;;;;;1.60;1.60;;;;;;;;;;5008504;28;20045;-73
2022/05/28 14:16:28;;;;;;;2.42;2.30;;;;;;;;;;5018107;28;20069;-74
2022/05/28 14:18:56;;;;;;;5.57;1.73;;;;;;;;;;4998607;28;20037;-74
2022/05/28 14:21:29;;;;;;;5.35;1.90;;;;;;;;;;5014886;28;20038;-73
2022/05/28 14:23:55;;;;;;;3.20;1.67;;;;;;;;;;5014521;28;20037;-74
2022/05/28 14:26:21;;;;;;;3.42;2.22;;;;;;;;;;5023927;28;20078;-73
2022/05/28 14:28:47;;;;;;;3.83;1.70;;;;;;;;;;5020932;28;20066;-73
2022/05/28 14:31:14;;;;;;;1.98;1.77;;;;;;;;;;5001959;28;20061;-73
2022/05/28 14:33:44;;;;;;;4.68;1.95;;;;;;;;;;5014510;28;20096;-73
2022/05/28 14:36:13;;;;;;;2.97;1.77;;;;;;;;;;5019069;28;20061;-72
2022/05/28 14:38:39;;;;;;;1.52;1.20;;;;;;;;;;5026948;28;20106;-73
2022/05/28 14:41:09;;;;;;;3.17;2.20;;;;;;;;;;5023057;28;20044;-73
2022/05/28 14:43:46;;;;;;;3.90;3.17;;;;;;;;;;5022704;28;20056;-73
2022/05/28 14:46:24;;;;;;;3.25;2.60;;;;;;;;;;5025704;28;20045;-72
2022/05/28 14:48:58;;;;;;;3.10;2.67;;;;;;;;;;5013121;28;20033;-72
2022/05/28 14:51:25;;;;;;;3.67;2.28;;;;;;;;;;4996879;28;20483;-72
2022/05/28 14:53:52;;;;;;;2.95;2.05;;;;;;;;;;5027184;28;20041;-71
2022/05/28 14:56:24;;;;;;;2.92;2.47;;;;;;;;;;5018011;28;20128;-72
2022/05/28 14:58:50;;;;;;;2.35;2.13;;;;;;;;;;5017747;28;20037;-71
2022/05/28 15:01:31;;;;;;;2.28;2.17;;;;;;;;;;4995187;28;20040;-72
2022/05/28 15:04:13;;;;;;;1.85;1.50;;;;;;;;;;5000670;28;20029;-72